sensor_id;sensor_type;location;lat;lon;timestamp;P1;durP1;ratioP1;P2;durP2;ratioP2
5519;SDS011;2782;52.362;10.012;2023-05-02T00:00:54;5.40;;;1.10;;
5519;SDS011;2782;52.362;10.012;2023-05-02T00:01:56;2.10;;;1.27;;
5519;SDS011;2782;52.362;10.012;2023-05-02T00:02:58;1.30;;;1.10;;
5519;SDS011;2782;52.362;10.012;2023-05-02T00:04:00;2.15;;;1.00;;
5519;SDS011;2782;52.362;10.012;2023-05-02T00:05:01;2.40;;;1.10;;
5519;SDS011;2782;52.362;10.012;2023-05-02T00:06:04;1.83;;;1.27;;
5519;SDS011;2782;52.362;10.012;2023-05-02T00:07:04;1.67;;;1.10;;
5519;SDS011;2782;52.362;10.012;2023-05-02T00:08:06;2.33;;;1.10;;
5519;SDS011;2782;52.362;10.012;2023-05-02T00:09:08;1.45;;;1.35;;
5519;SDS011;2782;52.362;10.012;2023-05-02T00:10:09;1.40;;;1.00;;
5519;SDS011;2782;52.362;10.012;2023-05-02T00:11:10;1.70;;;1.20;;
5519;SDS011;2782;52.362;10.012;2023-05-02T00:12:12;3.17;;;1.70;;
5519;SDS011;2782;52.362;10.012;2023-05-02T00:13:13;1.42;;;1.00;;
5519;SDS011;2782;52.362;10.012;2023-05-02T00:14:14;6.93;;;1.55;;
5519;SDS011;2782;52.362;10.012;2023-05-02T00:15:15;3.03;;;1.37;;
5519;SDS011;2782;52.362;10.012;2023-05-02T00:16:17;1.63;;;1.10;;
5519;SDS011;2782;52.362;10.012;2023-05-02T00:17:19;2.10;;;1.40;;
5519;SDS011;2782;52.362;10.012;2023-05-02T00:18:22;1.23;;;1.13;;
5519;SDS011;2782;52.362;10.012;2023-05-02T00:19:23;1.23;;;1.13;;
5519;SDS011;2782;52.362;10.012;2023-05-02T00:20:25;1.60;;;1.50;;
5519;SDS011;2782;52.362;10.012;2023-05-02T00:21:25;2.00;;;1.33;;
5519;SDS011;2782;52.362;10.012;2023-05-02T00:22:28;1.52;;;1.00;;
5519;SDS011;2782;52.362;10.012;2023-05-02T00:23:28;3.83;;;1.60;;
5519;SDS011;2782;52.362;10.012;2023-05-02T00:24:30;1.15;;;0.93;;
5519;SDS011;2782;52.362;10.012;2023-05-02T00:25:32;1.85;;;1.40;;
5519;SDS011;2782;52.362;10.012;2023-05-02T00:26:33;1.15;;;1.05;;
5519;SDS011;2782;52.362;10.012;2023-05-02T00:27:34;1.37;;;1.13;;
5519;SDS011;2782;52.362;10.012;2023-05-02T00:28:35;1.60;;;1.10;;
5519;SDS011;2782;52.362;10.012;2023-05-02T00:29:36;1.40;;;1.20;;
5519;SDS011;2782;52.362;10.012;2023-05-02T00:30:40;1.20;;;1.10;;
5519;SDS011;2782;52.362;10.012;2023-05-02T00:31:43;1.77;;;1.30;;
5519;SDS011;2782;52.362;10.012;2023-05-02T00:32:45;2.83;;;1.73;;
5519;SDS011;2782;52.362;10.012;2023-05-02T00:33:47;2.00;;;1.08;;
5519;SDS011;2782;52.362;10.012;2023-05-02T00:34:47;1.83;;;1.30;;
5519;SDS011;2782;52.362;10.012;2023-05-02T00:35:49;3.75;;;1.10;;
5519;SDS011;2782;52.362;10.012;2023-05-02T00:36:50;1.47;;;1.20;;
5519;SDS011;2782;52.362;10.012;2023-05-02T00:37:51;3.75;;;1.15;;
5519;SDS011;2782;52.362;10.012;2023-05-02T00:38:52;2.60;;;1.10;;
5519;SDS011;2782;52.362;10.012;2023-05-02T00:39:54;0.95;;;0.90;;
5519;SDS011;2782;52.362;10.012;2023-05-02T00:40:55;1.80;;;1.13;;
5519;SDS011;2782;52.362;10.012;2023-05-02T00:41:56;2.17;;;1.17;;
5519;SDS011;2782;52.362;10.012;2023-05-02T00:42:57;1.37;;;0.83;;
5519;SDS011;2782;52.362;10.012;2023-05-02T00:43:59;1.27;;;0.85;;
5519;SDS011;2782;52.362;10.012;2023-05-02T00:45:00;6.23;;;1.23;;
5519;SDS011;2782;52.362;10.012;2023-05-02T00:46:03;1.17;;;0.90;;
5519;SDS011;2782;52.362;10.012;2023-05-02T00:47:04;1.52;;;1.30;;
5519;SDS011;2782;52.362;10.012;2023-05-02T00:48:07;1.85;;;1.00;;
5519;SDS011;2782;52.362;10.012;2023-05-02T00:49:09;1.73;;;1.10;;
5519;SDS011;2782;52.362;10.012;2023-05-02T00:50:11;1.30;;;1.20;;
5519;SDS011;2782;52.362;10.012;2023-05-02T00:51:12;1.40;;;1.07;;
5519;SDS011;2782;52.362;10.012;2023-05-02T00:52:13;1.38;;;1.10;;
5519;SDS011;2782;52.362;10.012;2023-05-02T00:53:14;1.37;;;1.00;;
5519;SDS011;2782;52.362;10.012;2023-05-02T00:54:16;1.50;;;0.90;;
5519;SDS011;2782;52.362;10.012;2023-05-02T00:55:17;1.50;;;1.13;;
5519;SDS011;2782;52.362;10.012;2023-05-02T00:56:19;1.67;;;1.10;;
5519;SDS011;2782;52.362;10.012;2023-05-02T00:57:20;1.63;;;1.10;;
5519;SDS011;2782;52.362;10.012;2023-05-02T00:58:22;1.77;;;1.10;;
5519;SDS011;2782;52.362;10.012;2023-05-02T00:59:23;1.37;;;0.90;;
5519;SDS011;2782;52.362;10.012;2023-05-02T01:00:27;2.75;;;1.10;;
5519;SDS011;2782;52.362;10.012;2023-05-02T01:01:38;1.10;;;0.90;;
5519;SDS011;2782;52.362;10.012;2023-05-02T01:02:51;1.80;;;1.17;;
5519;SDS011;2782;52.362;10.012;2023-05-02T01:04:02;1.23;;;1.13;;
5519;SDS011;2782;52.362;10.012;2023-05-02T01:05:10;1.20;;;1.05;;
5519;SDS011;2782;52.362;10.012;2023-05-02T01:06:23;1.27;;;0.80;;
5519;SDS011;2782;52.362;10.012;2023-05-02T01:07:36;1.58;;;1.20;;
5519;SDS011;2782;52.362;10.012;2023-05-02T01:08:51;1.17;;;1.08;;
5519;SDS011;2782;52.362;10.012;2023-05-02T01:10:03;1.20;;;1.10;;
5519;SDS011;2782;52.362;10.012;2023-05-02T01:11:14;1.27;;;1.17;;
5519;SDS011;2782;52.362;10.012;2023-05-02T01:12:30;1.48;;;1.13;;
5519;SDS011;2782;52.362;10.012;2023-05-02T01:13:37;0.85;;;0.80;;
5519;SDS011;2782;52.362;10.012;2023-05-02T01:14:41;2.33;;;1.10;;
5519;SDS011;2782;52.362;10.012;2023-05-02T01:15:45;1.90;;;0.90;;
5519;SDS011;2782;52.362;10.012;2023-05-02T01:16:50;6.05;;;1.10;;
5519;SDS011;2782;52.362;10.012;2023-05-02T01:17:52;1.98;;;1.00;;
5519;SDS011;2782;52.362;10.012;2023-05-02T01:18:55;1.58;;;1.05;;
5519;SDS011;2782;52.362;10.012;2023-05-02T01:20:01;1.88;;;1.00;;
5519;SDS011;2782;52.362;10.012;2023-05-02T01:21:07;1.45;;;1.20;;
5519;SDS011;2782;52.362;10.012;2023-05-02T01:22:09;1.10;;;1.00;;
5519;SDS011;2782;52.362;10.012;2023-05-02T01:23:16;3.25;;;1.30;;
5519;SDS011;2782;52.362;10.012;2023-05-02T01:24:25;1.05;;;0.98;;
5519;SDS011;2782;52.362;10.012;2023-05-02T01:25:32;1.83;;;1.30;;
5519;SDS011;2782;52.362;10.012;2023-05-02T01:26:53;2.03;;;0.98;;
5519;SDS011;2782;52.362;10.012;2023-05-02T01:28:06;1.70;;;0.90;;
5519;SDS011;2782;52.362;10.012;2023-05-02T01:29:14;1.55;;;1.10;;
5519;SDS011;2782;52.362;10.012;2023-05-02T01:30:18;2.08;;;0.80;;
5519;SDS011;2782;52.362;10.012;2023-05-02T01:31:20;1.60;;;1.30;;
5519;SDS011;2782;52.362;10.012;2023-05-02T01:32:23;1.10;;;0.98;;
5519;SDS011;2782;52.362;10.012;2023-05-02T01:33:26;1.05;;;0.77;;
5519;SDS011;2782;52.362;10.012;2023-05-02T01:34:30;1.40;;;1.02;;
5519;SDS011;2782;52.362;10.012;2023-05-02T01:35:34;1.13;;;1.02;;
5519;SDS011;2782;52.362;10.012;2023-05-02T01:36:36;1.40;;;0.70;;
5519;SDS011;2782;52.362;10.012;2023-05-02T01:37:42;1.35;;;1.25;;
5519;SDS011;2782;52.362;10.012;2023-05-02T01:38:45;1.30;;;0.88;;
5519;SDS011;2782;52.362;10.012;2023-05-02T01:39:49;1.10;;;1.00;;
5519;SDS011;2782;52.362;10.012;2023-05-02T01:40:51;2.10;;;1.20;;
5519;SDS011;2782;52.362;10.012;2023-05-02T01:41:54;2.03;;;1.20;;
5519;SDS011;2782;52.362;10.012;2023-05-02T01:42:57;0.80;;;0.80;;
5519;SDS011;2782;52.362;10.012;2023-05-02T01:44:03;0.70;;;0.70;;
5519;SDS011;2782;52.362;10.012;2023-05-02T01:45:07;1.00;;;0.90;;
5519;SDS011;2782;52.362;10.012;2023-05-02T01:46:10;1.13;;;1.02;;
5519;SDS011;2782;52.362;10.012;2023-05-02T01:47:13;1.25;;;1.00;;
5519;SDS011;2782;52.362;10.012;2023-05-02T01:48:15;1.00;;;0.70;;
5519;SDS011;2782;52.362;10.012;2023-05-02T01:49:18;1.30;;;0.63;;
5519;SDS011;2782;52.362;10.012;2023-05-02T01:50:22;1.27;;;1.10;;
5519;SDS011;2782;52.362;10.012;2023-05-02T01:51:24;1.25;;;1.00;;
5519;SDS011;2782;52.362;10.012;2023-05-02T01:52:30;1.42;;;0.95;;
5519;SDS011;2782;52.362;10.012;2023-05-02T01:53:32;0.70;;;0.60;;
5519;SDS011;2782;52.362;10.012;2023-05-02T01:54:36;1.90;;;0.93;;
5519;SDS011;2782;52.362;10.012;2023-05-02T01:55:37;2.50;;;1.02;;
5519;SDS011;2782;52.362;10.012;2023-05-02T01:56:41;1.05;;;0.95;;
5519;SDS011;2782;52.362;10.012;2023-05-02T01:57:43;1.40;;;1.30;;
5519;SDS011;2782;52.362;10.012;2023-05-02T01:58:47;0.82;;;0.75;;
5519;SDS011;2782;52.362;10.012;2023-05-02T01:59:49;1.50;;;0.90;;
5519;SDS011;2782;52.362;10.012;2023-05-02T02:00:54;1.35;;;1.13;;
5519;SDS011;2782;52.362;10.012;2023-05-02T02:01:56;0.98;;;0.88;;
5519;SDS011;2782;52.362;10.012;2023-05-02T02:02:59;1.55;;;0.88;;
5519;SDS011;2782;52.362;10.012;2023-05-02T02:04:01;1.67;;;1.00;;
5519;SDS011;2782;52.362;10.012;2023-05-02T02:05:06;2.88;;;1.00;;
5519;SDS011;2782;52.362;10.012;2023-05-02T02:06:08;2.92;;;1.48;;
5519;SDS011;2782;52.362;10.012;2023-05-02T02:07:12;1.73;;;0.90;;
5519;SDS011;2782;52.362;10.012;2023-05-02T02:08:13;1.33;;;1.00;;
5519;SDS011;2782;52.362;10.012;2023-05-02T02:09:15;1.55;;;1.10;;
5519;SDS011;2782;52.362;10.012;2023-05-02T02:10:15;2.10;;;0.93;;
5519;SDS011;2782;52.362;10.012;2023-05-02T02:11:23;1.90;;;1.40;;
5519;SDS011;2782;52.362;10.012;2023-05-02T02:12:29;0.93;;;0.85;;
5519;SDS011;2782;52.362;10.012;2023-05-02T02:13:38;1.08;;;0.90;;
5519;SDS011;2782;52.362;10.012;2023-05-02T02:14:45;0.93;;;0.93;;
5519;SDS011;2782;52.362;10.012;2023-05-02T02:15:50;0.68;;;0.63;;
5519;SDS011;2782;52.362;10.012;2023-05-02T02:16:58;1.90;;;1.10;;
5519;SDS011;2782;52.362;10.012;2023-05-02T02:18:04;1.60;;;0.95;;
5519;SDS011;2782;52.362;10.012;2023-05-02T02:19:09;0.80;;;0.68;;
5519;SDS011;2782;52.362;10.012;2023-05-02T02:20:14;1.08;;;0.60;;
5519;SDS011;2782;52.362;10.012;2023-05-02T02:21:17;1.88;;;1.10;;
5519;SDS011;2782;52.362;10.012;2023-05-02T02:22:20;2.65;;;1.30;;
5519;SDS011;2782;52.362;10.012;2023-05-02T02:23:24;1.00;;;0.77;;
5519;SDS011;2782;52.362;10.012;2023-05-02T02:24:27;2.08;;;1.20;;
5519;SDS011;2782;52.362;10.012;2023-05-02T02:25:29;0.90;;;0.73;;
5519;SDS011;2782;52.362;10.012;2023-05-02T02:26:32;1.70;;;1.10;;
5519;SDS011;2782;52.362;10.012;2023-05-02T02:27:34;0.80;;;0.70;;
5519;SDS011;2782;52.362;10.012;2023-05-02T02:28:37;1.25;;;1.00;;
5519;SDS011;2782;52.362;10.012;2023-05-02T02:29:38;1.70;;;1.00;;
5519;SDS011;2782;52.362;10.012;2023-05-02T02:30:40;1.02;;;0.77;;
5519;SDS011;2782;52.362;10.012;2023-05-02T02:31:42;1.37;;;0.83;;
5519;SDS011;2782;52.362;10.012;2023-05-02T02:32:43;1.10;;;1.00;;
5519;SDS011;2782;52.362;10.012;2023-05-02T02:33:44;1.10;;;0.80;;
5519;SDS011;2782;52.362;10.012;2023-05-02T02:34:46;1.02;;;0.88;;
5519;SDS011;2782;52.362;10.012;2023-05-02T02:35:47;1.30;;;0.80;;
5519;SDS011;2782;52.362;10.012;2023-05-02T02:36:56;1.20;;;1.08;;
5519;SDS011;2782;52.362;10.012;2023-05-02T02:38:07;0.70;;;0.70;;
5519;SDS011;2782;52.362;10.012;2023-05-02T02:39:20;1.23;;;1.13;;
5519;SDS011;2782;52.362;10.012;2023-05-02T02:40:33;1.35;;;0.95;;
5519;SDS011;2782;52.362;10.012;2023-05-02T02:41:42;1.73;;;1.23;;
5519;SDS011;2782;52.362;10.012;2023-05-02T02:42:51;3.35;;;1.27;;
5519;SDS011;2782;52.362;10.012;2023-05-02T02:43:59;1.67;;;0.70;;
5519;SDS011;2782;52.362;10.012;2023-05-02T02:45:09;1.73;;;1.00;;
5519;SDS011;2782;52.362;10.012;2023-05-02T02:46:21;1.15;;;0.95;;
5519;SDS011;2782;52.362;10.012;2023-05-02T02:47:34;1.23;;;0.77;;
5519;SDS011;2782;52.362;10.012;2023-05-02T02:48:42;1.00;;;0.90;;
5519;SDS011;2782;52.362;10.012;2023-05-02T02:49:55;2.50;;;1.20;;
5519;SDS011;2782;52.362;10.012;2023-05-02T02:51:09;1.00;;;0.85;;
5519;SDS011;2782;52.362;10.012;2023-05-02T02:52:16;1.15;;;1.05;;
5519;SDS011;2782;52.362;10.012;2023-05-02T02:53:24;1.15;;;0.73;;
5519;SDS011;2782;52.362;10.012;2023-05-02T02:54:34;0.70;;;0.70;;
5519;SDS011;2782;52.362;10.012;2023-05-02T02:55:40;0.75;;;0.73;;
5519;SDS011;2782;52.362;10.012;2023-05-02T02:56:47;1.00;;;0.90;;
5519;SDS011;2782;52.362;10.012;2023-05-02T02:57:57;0.80;;;0.75;;
5519;SDS011;2782;52.362;10.012;2023-05-02T02:59:02;0.80;;;0.60;;
5519;SDS011;2782;52.362;10.012;2023-05-02T03:00:06;1.42;;;1.00;;
5519;SDS011;2782;52.362;10.012;2023-05-02T03:01:14;1.00;;;1.00;;
5519;SDS011;2782;52.362;10.012;2023-05-02T03:02:18;1.15;;;0.70;;
5519;SDS011;2782;52.362;10.012;2023-05-02T03:03:27;0.85;;;0.70;;
5519;SDS011;2782;52.362;10.012;2023-05-02T03:04:29;1.10;;;0.80;;
5519;SDS011;2782;52.362;10.012;2023-05-02T03:05:33;0.82;;;0.70;;
5519;SDS011;2782;52.362;10.012;2023-05-02T03:06:35;0.90;;;0.77;;
5519;SDS011;2782;52.362;10.012;2023-05-02T03:07:37;1.00;;;0.63;;
5519;SDS011;2782;52.362;10.012;2023-05-02T03:08:38;0.97;;;0.90;;
5519;SDS011;2782;52.362;10.012;2023-05-02T03:09:40;1.00;;;0.73;;
5519;SDS011;2782;52.362;10.012;2023-05-02T03:10:41;0.77;;;0.70;;
5519;SDS011;2782;52.362;10.012;2023-05-02T03:11:43;0.95;;;0.60;;
5519;SDS011;2782;52.362;10.012;2023-05-02T03:12:45;1.75;;;0.80;;
5519;SDS011;2782;52.362;10.012;2023-05-02T03:13:46;1.08;;;0.98;;
5519;SDS011;2782;52.362;10.012;2023-05-02T03:14:47;1.03;;;0.90;;
5519;SDS011;2782;52.362;10.012;2023-05-02T03:17:34;0.75;;;0.75;;
5519;SDS011;2782;52.362;10.012;2023-05-02T03:18:36;0.77;;;0.70;;
5519;SDS011;2782;52.362;10.012;2023-05-02T03:19:38;1.13;;;0.93;;
5519;SDS011;2782;52.362;10.012;2023-05-02T03:20:38;0.80;;;0.63;;
5519;SDS011;2782;52.362;10.012;2023-05-02T03:21:40;0.70;;;0.65;;
5519;SDS011;2782;52.362;10.012;2023-05-02T03:22:42;1.10;;;0.73;;
5519;SDS011;2782;52.362;10.012;2023-05-02T03:23:43;1.08;;;0.98;;
5519;SDS011;2782;52.362;10.012;2023-05-02T03:24:44;1.00;;;0.80;;
5519;SDS011;2782;52.362;10.012;2023-05-02T03:25:46;0.60;;;0.50;;
5519;SDS011;2782;52.362;10.012;2023-05-02T03:26:46;0.73;;;0.50;;
5519;SDS011;2782;52.362;10.012;2023-05-02T03:27:50;0.63;;;0.50;;
5519;SDS011;2782;52.362;10.012;2023-05-02T03:28:51;1.80;;;0.90;;
5519;SDS011;2782;52.362;10.012;2023-05-02T03:29:53;1.55;;;0.90;;
5519;SDS011;2782;52.362;10.012;2023-05-02T03:30:53;1.90;;;1.50;;
5519;SDS011;2782;52.362;10.012;2023-05-02T03:31:55;1.33;;;1.23;;
5519;SDS011;2782;52.362;10.012;2023-05-02T03:32:57;1.00;;;0.90;;
5519;SDS011;2782;52.362;10.012;2023-05-02T03:34:00;1.08;;;0.98;;
5519;SDS011;2782;52.362;10.012;2023-05-02T03:35:02;1.55;;;1.00;;
5519;SDS011;2782;52.362;10.012;2023-05-02T03:36:03;1.00;;;0.90;;
5519;SDS011;2782;52.362;10.012;2023-05-02T03:37:05;2.85;;;1.13;;
5519;SDS011;2782;52.362;10.012;2023-05-02T03:38:06;1.05;;;0.95;;
5519;SDS011;2782;52.362;10.012;2023-05-02T03:39:07;0.90;;;0.90;;
5519;SDS011;2782;52.362;10.012;2023-05-02T03:40:10;0.70;;;0.68;;
5519;SDS011;2782;52.362;10.012;2023-05-02T03:41:11;0.95;;;0.80;;
5519;SDS011;2782;52.362;10.012;2023-05-02T03:42:12;1.02;;;0.80;;
5519;SDS011;2782;52.362;10.012;2023-05-02T03:43:13;1.10;;;0.90;;
5519;SDS011;2782;52.362;10.012;2023-05-02T03:44:14;0.88;;;0.88;;
5519;SDS011;2782;52.362;10.012;2023-05-02T03:45:15;0.73;;;0.73;;
5519;SDS011;2782;52.362;10.012;2023-05-02T03:46:17;0.85;;;0.60;;
5519;SDS011;2782;52.362;10.012;2023-05-02T03:47:17;1.10;;;0.87;;
5519;SDS011;2782;52.362;10.012;2023-05-02T03:48:19;1.70;;;1.20;;
5519;SDS011;2782;52.362;10.012;2023-05-02T03:49:21;1.77;;;1.20;;
5519;SDS011;2782;52.362;10.012;2023-05-02T03:50:23;1.20;;;0.95;;
5519;SDS011;2782;52.362;10.012;2023-05-02T03:51:24;1.07;;;0.97;;
5519;SDS011;2782;52.362;10.012;2023-05-02T03:52:25;1.20;;;1.05;;
5519;SDS011;2782;52.362;10.012;2023-05-02T03:53:26;0.77;;;0.77;;
5519;SDS011;2782;52.362;10.012;2023-05-02T03:54:30;0.73;;;0.73;;
5519;SDS011;2782;52.362;10.012;2023-05-02T03:55:32;1.17;;;1.08;;
5519;SDS011;2782;52.362;10.012;2023-05-02T03:56:37;1.52;;;0.98;;
5519;SDS011;2782;52.362;10.012;2023-05-02T03:57:39;0.80;;;0.70;;
5519;SDS011;2782;52.362;10.012;2023-05-02T03:58:39;1.23;;;1.13;;
5519;SDS011;2782;52.362;10.012;2023-05-02T03:59:41;0.80;;;0.80;;
5519;SDS011;2782;52.362;10.012;2023-05-02T04:00:44;1.35;;;1.13;;
5519;SDS011;2782;52.362;10.012;2023-05-02T04:01:47;0.75;;;0.75;;
5519;SDS011;2782;52.362;10.012;2023-05-02T04:02:48;0.70;;;0.60;;
5519;SDS011;2782;52.362;10.012;2023-05-02T04:03:50;1.00;;;0.90;;
5519;SDS011;2782;52.362;10.012;2023-05-02T04:04:52;1.15;;;0.90;;
5519;SDS011;2782;52.362;10.012;2023-05-02T04:05:54;0.80;;;0.80;;
5519;SDS011;2782;52.362;10.012;2023-05-02T04:06:54;1.43;;;1.00;;
5519;SDS011;2782;52.362;10.012;2023-05-02T04:07:56;1.45;;;1.20;;
5519;SDS011;2782;52.362;10.012;2023-05-02T04:08:57;0.90;;;0.90;;
5519;SDS011;2782;52.362;10.012;2023-05-02T04:09:58;1.00;;;0.90;;
5519;SDS011;2782;52.362;10.012;2023-05-02T04:10:59;1.03;;;0.93;;
5519;SDS011;2782;52.362;10.012;2023-05-02T04:12:00;0.95;;;0.68;;
5519;SDS011;2782;52.362;10.012;2023-05-02T04:13:01;1.50;;;0.83;;
5519;SDS011;2782;52.362;10.012;2023-05-02T04:14:03;1.95;;;1.05;;
5519;SDS011;2782;52.362;10.012;2023-05-02T04:15:04;0.93;;;0.70;;
5519;SDS011;2782;52.362;10.012;2023-05-02T04:16:07;0.70;;;0.70;;
5519;SDS011;2782;52.362;10.012;2023-05-02T04:17:08;1.45;;;0.93;;
5519;SDS011;2782;52.362;10.012;2023-05-02T04:18:09;1.13;;;0.88;;
5519;SDS011;2782;52.362;10.012;2023-05-02T04:19:10;1.60;;;0.80;;
5519;SDS011;2782;52.362;10.012;2023-05-02T04:20:15;0.98;;;0.75;;
5519;SDS011;2782;52.362;10.012;2023-05-02T04:21:16;1.00;;;0.93;;
5519;SDS011;2782;52.362;10.012;2023-05-02T04:22:17;0.70;;;0.52;;
5519;SDS011;2782;52.362;10.012;2023-05-02T04:23:18;1.27;;;0.80;;
5519;SDS011;2782;52.362;10.012;2023-05-02T04:24:19;1.63;;;0.90;;
5519;SDS011;2782;52.362;10.012;2023-05-02T04:25:21;1.25;;;0.70;;
5519;SDS011;2782;52.362;10.012;2023-05-02T04:26:22;0.80;;;0.70;;
5519;SDS011;2782;52.362;10.012;2023-05-02T04:27:23;1.40;;;0.60;;
5519;SDS011;2782;52.362;10.012;2023-05-02T04:28:25;1.20;;;0.52;;
5519;SDS011;2782;52.362;10.012;2023-05-02T04:29:26;0.97;;;0.70;;
5519;SDS011;2782;52.362;10.012;2023-05-02T04:30:27;0.73;;;0.47;;
5519;SDS011;2782;52.362;10.012;2023-05-02T04:31:29;0.70;;;0.55;;
5519;SDS011;2782;52.362;10.012;2023-05-02T04:32:30;0.95;;;0.80;;
5519;SDS011;2782;52.362;10.012;2023-05-02T04:33:33;1.10;;;0.80;;
5519;SDS011;2782;52.362;10.012;2023-05-02T04:34:34;0.70;;;0.57;;
5519;SDS011;2782;52.362;10.012;2023-05-02T04:35:37;0.50;;;0.40;;
5519;SDS011;2782;52.362;10.012;2023-05-02T04:36:38;1.17;;;0.80;;
5519;SDS011;2782;52.362;10.012;2023-05-02T04:37:40;1.10;;;1.00;;
5519;SDS011;2782;52.362;10.012;2023-05-02T04:38:41;1.10;;;0.73;;
5519;SDS011;2782;52.362;10.012;2023-05-02T04:39:43;0.80;;;0.60;;
5519;SDS011;2782;52.362;10.012;2023-05-02T04:40:44;0.70;;;0.50;;
5519;SDS011;2782;52.362;10.012;2023-05-02T04:41:45;0.93;;;0.73;;
5519;SDS011;2782;52.362;10.012;2023-05-02T04:42:47;0.90;;;0.75;;
5519;SDS011;2782;52.362;10.012;2023-05-02T04:43:48;0.75;;;0.70;;
5519;SDS011;2782;52.362;10.012;2023-05-02T04:44:49;1.33;;;0.70;;
5519;SDS011;2782;52.362;10.012;2023-05-02T04:45:51;0.65;;;0.60;;
5519;SDS011;2782;52.362;10.012;2023-05-02T04:46:51;1.03;;;0.93;;
5519;SDS011;2782;52.362;10.012;2023-05-02T04:47:53;0.90;;;0.60;;
5519;SDS011;2782;52.362;10.012;2023-05-02T04:48:53;1.23;;;0.50;;
5519;SDS011;2782;52.362;10.012;2023-05-02T04:49:55;4.60;;;0.95;;
5519;SDS011;2782;52.362;10.012;2023-05-02T04:50:57;1.00;;;1.00;;
5519;SDS011;2782;52.362;10.012;2023-05-02T04:51:59;1.65;;;0.95;;
5519;SDS011;2782;52.362;10.012;2023-05-02T04:52:59;3.13;;;1.47;;
5519;SDS011;2782;52.362;10.012;2023-05-02T04:54:01;5.38;;;1.27;;
5519;SDS011;2782;52.362;10.012;2023-05-02T04:55:02;5.13;;;1.33;;
5519;SDS011;2782;52.362;10.012;2023-05-02T04:56:04;2.75;;;1.20;;
5519;SDS011;2782;52.362;10.012;2023-05-02T04:57:05;2.80;;;1.00;;
5519;SDS011;2782;52.362;10.012;2023-05-02T04:58:09;5.00;;;1.23;;
5519;SDS011;2782;52.362;10.012;2023-05-02T04:59:09;2.63;;;1.53;;
5519;SDS011;2782;52.362;10.012;2023-05-02T05:00:11;3.20;;;1.50;;
5519;SDS011;2782;52.362;10.012;2023-05-02T05:01:12;7.97;;;1.90;;
5519;SDS011;2782;52.362;10.012;2023-05-02T05:02:14;4.28;;;1.90;;
5519;SDS011;2782;52.362;10.012;2023-05-02T05:03:15;3.63;;;1.30;;
5519;SDS011;2782;52.362;10.012;2023-05-02T05:04:16;4.07;;;1.90;;
5519;SDS011;2782;52.362;10.012;2023-05-02T05:05:17;10.40;;;2.30;;
5519;SDS011;2782;52.362;10.012;2023-05-02T05:06:20;7.25;;;1.90;;
5519;SDS011;2782;52.362;10.012;2023-05-02T05:07:21;7.43;;;1.80;;
5519;SDS011;2782;52.362;10.012;2023-05-02T05:08:24;5.10;;;2.10;;
5519;SDS011;2782;52.362;10.012;2023-05-02T05:09:26;5.38;;;2.40;;
5519;SDS011;2782;52.362;10.012;2023-05-02T05:10:26;4.83;;;2.03;;
5519;SDS011;2782;52.362;10.012;2023-05-02T05:11:28;4.20;;;1.90;;
5519;SDS011;2782;52.362;10.012;2023-05-02T05:12:29;3.58;;;1.40;;
5519;SDS011;2782;52.362;10.012;2023-05-02T05:13:31;6.05;;;1.90;;
5519;SDS011;2782;52.362;10.012;2023-05-02T05:14:32;6.80;;;2.17;;
5519;SDS011;2782;52.362;10.012;2023-05-02T05:15:33;9.40;;;2.00;;
5519;SDS011;2782;52.362;10.012;2023-05-02T05:16:34;7.90;;;2.10;;
5519;SDS011;2782;52.362;10.012;2023-05-02T05:17:36;8.68;;;2.10;;
5519;SDS011;2782;52.362;10.012;2023-05-02T05:18:37;6.33;;;1.90;;
5519;SDS011;2782;52.362;10.012;2023-05-02T05:19:40;2.80;;;1.40;;
5519;SDS011;2782;52.362;10.012;2023-05-02T05:20:41;5.90;;;1.85;;
5519;SDS011;2782;52.362;10.012;2023-05-02T05:21:44;6.25;;;2.40;;
5519;SDS011;2782;52.362;10.012;2023-05-02T05:22:44;6.53;;;2.90;;
5519;SDS011;2782;52.362;10.012;2023-05-02T05:23:46;7.15;;;1.40;;
5519;SDS011;2782;52.362;10.012;2023-05-02T05:24:50;5.97;;;2.03;;
5519;SDS011;2782;52.362;10.012;2023-05-02T05:25:52;7.80;;;2.78;;
5519;SDS011;2782;52.362;10.012;2023-05-02T05:26:53;8.93;;;2.90;;
5519;SDS011;2782;52.362;10.012;2023-05-02T05:27:54;6.60;;;4.15;;
5519;SDS011;2782;52.362;10.012;2023-05-02T05:28:56;7.13;;;4.90;;
5519;SDS011;2782;52.362;10.012;2023-05-02T05:29:57;8.38;;;3.10;;
5519;SDS011;2782;52.362;10.012;2023-05-02T05:31:03;8.43;;;4.10;;
5519;SDS011;2782;52.362;10.012;2023-05-02T05:32:05;6.10;;;4.40;;
5519;SDS011;2782;52.362;10.012;2023-05-02T05:33:06;8.70;;;3.57;;
5519;SDS011;2782;52.362;10.012;2023-05-02T05:34:07;9.25;;;3.33;;
5519;SDS011;2782;52.362;10.012;2023-05-02T05:35:08;6.57;;;2.70;;
5519;SDS011;2782;52.362;10.012;2023-05-02T05:36:11;5.57;;;3.00;;
5519;SDS011;2782;52.362;10.012;2023-05-02T05:37:15;7.63;;;2.80;;
5519;SDS011;2782;52.362;10.012;2023-05-02T05:38:16;4.43;;;2.20;;
5519;SDS011;2782;52.362;10.012;2023-05-02T05:39:17;7.23;;;2.73;;
5519;SDS011;2782;52.362;10.012;2023-05-02T05:40:19;6.93;;;3.30;;
5519;SDS011;2782;52.362;10.012;2023-05-02T05:41:20;6.30;;;3.63;;
5519;SDS011;2782;52.362;10.012;2023-05-02T05:42:23;4.38;;;2.60;;
5519;SDS011;2782;52.362;10.012;2023-05-02T05:43:24;8.38;;;3.03;;
5519;SDS011;2782;52.362;10.012;2023-05-02T05:44:26;7.97;;;3.08;;
5519;SDS011;2782;52.362;10.012;2023-05-02T05:45:27;14.83;;;2.80;;
5519;SDS011;2782;52.362;10.012;2023-05-02T05:46:28;5.43;;;2.63;;
5519;SDS011;2782;52.362;10.012;2023-05-02T05:47:29;13.10;;;3.03;;
5519;SDS011;2782;52.362;10.012;2023-05-02T05:48:31;11.02;;;2.80;;
5519;SDS011;2782;52.362;10.012;2023-05-02T05:49:31;5.20;;;2.13;;
5519;SDS011;2782;52.362;10.012;2023-05-02T05:50:35;5.30;;;2.75;;
5519;SDS011;2782;52.362;10.012;2023-05-02T05:51:36;4.28;;;2.80;;
5519;SDS011;2782;52.362;10.012;2023-05-02T05:52:38;6.60;;;2.30;;
5519;SDS011;2782;52.362;10.012;2023-05-02T05:53:40;5.28;;;2.95;;
5519;SDS011;2782;52.362;10.012;2023-05-02T05:54:40;9.70;;;2.63;;
5519;SDS011;2782;52.362;10.012;2023-05-02T05:55:42;8.35;;;2.50;;
5519;SDS011;2782;52.362;10.012;2023-05-02T05:56:43;4.53;;;2.87;;
5519;SDS011;2782;52.362;10.012;2023-05-02T05:57:45;7.90;;;2.35;;
5519;SDS011;2782;52.362;10.012;2023-05-02T05:58:45;2.57;;;2.37;;
5519;SDS011;2782;52.362;10.012;2023-05-02T05:59:47;4.22;;;2.92;;
5519;SDS011;2782;52.362;10.012;2023-05-02T06:00:48;6.17;;;2.20;;
5519;SDS011;2782;52.362;10.012;2023-05-02T06:01:49;5.07;;;2.67;;
5519;SDS011;2782;52.362;10.012;2023-05-02T06:02:50;5.27;;;2.47;;
5519;SDS011;2782;52.362;10.012;2023-05-02T06:03:52;5.22;;;2.10;;
5519;SDS011;2782;52.362;10.012;2023-05-02T06:04:52;3.93;;;2.50;;
5519;SDS011;2782;52.362;10.012;2023-05-02T06:05:54;6.13;;;2.63;;
5519;SDS011;2782;52.362;10.012;2023-05-02T06:06:55;7.50;;;2.47;;
5519;SDS011;2782;52.362;10.012;2023-05-02T06:07:58;7.22;;;2.63;;
5519;SDS011;2782;52.362;10.012;2023-05-02T06:08:59;4.63;;;2.10;;
5519;SDS011;2782;52.362;10.012;2023-05-02T06:10:01;4.50;;;2.15;;
5519;SDS011;2782;52.362;10.012;2023-05-02T06:11:07;3.90;;;1.52;;
5519;SDS011;2782;52.362;10.012;2023-05-02T06:12:08;5.38;;;2.10;;
5519;SDS011;2782;52.362;10.012;2023-05-02T06:13:10;2.78;;;2.00;;
5519;SDS011;2782;52.362;10.012;2023-05-02T06:14:11;5.60;;;2.30;;
5519;SDS011;2782;52.362;10.012;2023-05-02T06:15:12;3.15;;;1.85;;
5519;SDS011;2782;52.362;10.012;2023-05-02T06:16:14;3.55;;;1.80;;
5519;SDS011;2782;52.362;10.012;2023-05-02T06:17:17;4.28;;;2.05;;
5519;SDS011;2782;52.362;10.012;2023-05-02T06:18:18;5.30;;;2.00;;
5519;SDS011;2782;52.362;10.012;2023-05-02T06:19:19;7.45;;;2.40;;
5519;SDS011;2782;52.362;10.012;2023-05-02T06:20:21;5.18;;;2.22;;
5519;SDS011;2782;52.362;10.012;2023-05-02T06:21:21;7.10;;;2.10;;
5519;SDS011;2782;52.362;10.012;2023-05-02T06:22:23;2.25;;;1.50;;
5519;SDS011;2782;52.362;10.012;2023-05-02T06:23:26;3.60;;;1.48;;
5519;SDS011;2782;52.362;10.012;2023-05-02T06:24:27;3.08;;;2.03;;
5519;SDS011;2782;52.362;10.012;2023-05-02T06:25:28;5.17;;;1.87;;
5519;SDS011;2782;52.362;10.012;2023-05-02T06:26:31;2.75;;;1.40;;